Terminal Aerodrome Forecast
Issued by NWS Wakefield, VA

Home | Current Version | Previous Version | Text Only | Print | Product List | Glossary On
Versions: 1 2 3 4 5 6 7 8 9 10 11 12 13 14 15 16 17 18 19 20 21 22 23 24 25 26 27 28 29 30 31 32 33
000
FTUS41 KAKQ 141120
TAFSBY
TAF
KSBY 141120Z 1412/1512 22006KT P6SM SCT050 BKN120
     FM142100 18007KT 6SM -SHRA OVC050
     FM150000 15005KT 3SM SHRA BR OVC025
     FM150500 10006KT 4SM -SHRA BR OVC008=

USA.gov is the U.S. government's official web portal to all federal, state and local government web resources and services.